Terminal Aerodrome Forecast
Issued by NWS

Home | Current Version | Previous Version | Text Only | Print | Product List | Glossary Off
Versions: 1 2 3 4 5 6 7 8 9 10 11 12 13 14 15 16 17 18 19 20 21 22 23 24

000
FTUS43 KLOT 240914 AAA
TAFGYY
TAF AMD
KGYY 240914Z 2409/2506 01006KT 3SM -SHRA BR BKN005 OVC040
     FM241100 01006KT 4SM BR VCSH SCT003 OVC005
     FM241500 02010KT P6SM VCSH SCT009 BKN015
     FM241800 01012G20KT P6SM SCT009 SCT020 BKN050
     FM250100 36010KT P6SM SCT007 SCT015 BKN030=

USA.gov is the U.S. government's official web portal to all federal, state and local government web resources and services.